sensor_id;sensor_type;location;lat;lon;timestamp;P1;durP1;ratioP1;P2;durP2;ratioP2
72761;SDS011;60886;55.034;73.150;2023-02-07T00:00:09;11.55;;;3.08;;
72761;SDS011;60886;55.034;73.150;2023-02-07T00:03:20;9.02;;;2.90;;
72761;SDS011;60886;55.034;73.150;2023-02-07T00:06:28;11.48;;;2.78;;
72761;SDS011;60886;55.034;73.150;2023-02-07T00:09:36;14.77;;;4.77;;
72761;SDS011;60886;55.034;73.150;2023-02-07T00:12:39;14.43;;;2.90;;
72761;SDS011;60886;55.034;73.150;2023-02-07T00:15:51;14.03;;;4.40;;
72761;SDS011;60886;55.034;73.150;2023-02-07T00:18:59;12.52;;;3.38;;
72761;SDS011;60886;55.034;73.150;2023-02-07T00:22:06;16.70;;;4.35;;
72761;SDS011;60886;55.034;73.150;2023-02-07T00:25:13;11.20;;;3.73;;
72761;SDS011;60886;55.034;73.150;2023-02-07T00:28:16;17.45;;;4.38;;
72761;SDS011;60886;55.034;73.150;2023-02-07T00:31:28;13.63;;;3.55;;
72761;SDS011;60886;55.034;73.150;2023-02-07T00:34:30;9.20;;;3.23;;
72761;SDS011;60886;55.034;73.150;2023-02-07T00:37:41;13.75;;;3.35;;
72761;SDS011;60886;55.034;73.150;2023-02-07T00:40:42;13.40;;;3.93;;
72761;SDS011;60886;55.034;73.150;2023-02-07T00:43:44;14.38;;;3.72;;
72761;SDS011;60886;55.034;73.150;2023-02-07T00:46:47;14.40;;;3.60;;
72761;SDS011;60886;55.034;73.150;2023-02-07T00:49:49;13.40;;;3.70;;
72761;SDS011;60886;55.034;73.150;2023-02-07T00:52:51;15.43;;;4.55;;
72761;SDS011;60886;55.034;73.150;2023-02-07T00:55:57;11.10;;;4.20;;
72761;SDS011;60886;55.034;73.150;2023-02-07T00:58:59;13.85;;;4.35;;
72761;SDS011;60886;55.034;73.150;2023-02-07T01:02:06;15.65;;;4.45;;
72761;SDS011;60886;55.034;73.150;2023-02-07T01:05:19;15.23;;;5.07;;
72761;SDS011;60886;55.034;73.150;2023-02-07T01:08:33;13.35;;;5.23;;
72761;SDS011;60886;55.034;73.150;2023-02-07T01:11:45;12.60;;;4.22;;
72761;SDS011;60886;55.034;73.150;2023-02-07T01:14:52;12.47;;;4.23;;
72761;SDS011;60886;55.034;73.150;2023-02-07T01:17:59;14.70;;;4.37;;
72761;SDS011;60886;55.034;73.150;2023-02-07T01:21:00;14.43;;;4.13;;
72761;SDS011;60886;55.034;73.150;2023-02-07T01:24:01;17.83;;;4.53;;
72761;SDS011;60886;55.034;73.150;2023-02-07T01:27:03;14.63;;;4.03;;
72761;SDS011;60886;55.034;73.150;2023-02-07T01:30:05;15.95;;;4.28;;
72761;SDS011;60886;55.034;73.150;2023-02-07T01:33:12;17.23;;;4.85;;
72761;SDS011;60886;55.034;73.150;2023-02-07T01:36:19;17.90;;;4.80;;
72761;SDS011;60886;55.034;73.150;2023-02-07T01:39:31;14.40;;;3.72;;
72761;SDS011;60886;55.034;73.150;2023-02-07T01:42:33;15.63;;;4.28;;
72761;SDS011;60886;55.034;73.150;2023-02-07T01:45:46;12.27;;;3.53;;
72761;SDS011;60886;55.034;73.150;2023-02-07T01:48:47;14.87;;;5.07;;
72761;SDS011;60886;55.034;73.150;2023-02-07T01:51:50;16.73;;;4.57;;
72761;SDS011;60886;55.034;73.150;2023-02-07T01:55:02;13.30;;;4.40;;
72761;SDS011;60886;55.034;73.150;2023-02-07T01:58:12;15.38;;;4.53;;
72761;SDS011;60886;55.034;73.150;2023-02-07T02:01:18;10.68;;;3.35;;
72761;SDS011;60886;55.034;73.150;2023-02-07T02:04:23;13.98;;;4.20;;
72761;SDS011;60886;55.034;73.150;2023-02-07T02:07:27;12.43;;;3.78;;
72761;SDS011;60886;55.034;73.150;2023-02-07T02:17:55;11.17;;;3.47;;
72761;SDS011;60886;55.034;73.150;2023-02-07T02:21:30;11.18;;;3.33;;
72761;SDS011;60886;55.034;73.150;2023-02-07T02:35:18;13.38;;;3.58;;
72761;SDS011;60886;55.034;73.150;2023-02-07T02:38:44;14.00;;;3.60;;
72761;SDS011;60886;55.034;73.150;2023-02-07T02:48:49;14.55;;;4.05;;
72761;SDS011;60886;55.034;73.150;2023-02-07T02:51:56;14.90;;;3.50;;
72761;SDS011;60886;55.034;73.150;2023-02-07T02:55:04;12.83;;;4.00;;
72761;SDS011;60886;55.034;73.150;2023-02-07T03:04:57;10.33;;;3.17;;
72761;SDS011;60886;55.034;73.150;2023-02-07T03:08:11;18.53;;;3.97;;
72761;SDS011;60886;55.034;73.150;2023-02-07T03:11:23;17.27;;;4.35;;
72761;SDS011;60886;55.034;73.150;2023-02-07T03:18:06;15.07;;;3.35;;
72761;SDS011;60886;55.034;73.150;2023-02-07T03:21:46;13.88;;;3.63;;
72761;SDS011;60886;55.034;73.150;2023-02-07T03:24:48;14.65;;;3.92;;
72761;SDS011;60886;55.034;73.150;2023-02-07T03:27:55;11.27;;;3.30;;
72761;SDS011;60886;55.034;73.150;2023-02-07T03:30:56;13.93;;;3.27;;
72761;SDS011;60886;55.034;73.150;2023-02-07T03:34:23;10.52;;;3.00;;
72761;SDS011;60886;55.034;73.150;2023-02-07T03:37:33;14.47;;;4.23;;
72761;SDS011;60886;55.034;73.150;2023-02-07T03:40:42;13.52;;;4.30;;
72761;SDS011;60886;55.034;73.150;2023-02-07T03:43:46;17.47;;;6.20;;
72761;SDS011;60886;55.034;73.150;2023-02-07T03:46:52;16.27;;;5.57;;
72761;SDS011;60886;55.034;73.150;2023-02-07T03:49:55;16.60;;;5.95;;
72761;SDS011;60886;55.034;73.150;2023-02-07T03:52:58;21.23;;;5.57;;
72761;SDS011;60886;55.034;73.150;2023-02-07T03:55:59;17.30;;;5.38;;
72761;SDS011;60886;55.034;73.150;2023-02-07T03:59:00;17.00;;;5.78;;
72761;SDS011;60886;55.034;73.150;2023-02-07T04:02:02;22.40;;;5.32;;
72761;SDS011;60886;55.034;73.150;2023-02-07T04:05:04;15.00;;;4.47;;
72761;SDS011;60886;55.034;73.150;2023-02-07T04:08:15;15.17;;;4.83;;
72761;SDS011;60886;55.034;73.150;2023-02-07T04:11:26;18.67;;;5.10;;
72761;SDS011;60886;55.034;73.150;2023-02-07T04:14:29;17.93;;;3.93;;
72761;SDS011;60886;55.034;73.150;2023-02-07T04:17:31;17.75;;;4.85;;
72761;SDS011;60886;55.034;73.150;2023-02-07T04:20:43;15.53;;;3.93;;
72761;SDS011;60886;55.034;73.150;2023-02-07T04:23:45;14.73;;;4.73;;
72761;SDS011;60886;55.034;73.150;2023-02-07T04:26:57;19.02;;;5.20;;
72761;SDS011;60886;55.034;73.150;2023-02-07T04:30:09;15.57;;;4.47;;
72761;SDS011;60886;55.034;73.150;2023-02-07T04:33:21;14.77;;;4.75;;
72761;SDS011;60886;55.034;73.150;2023-02-07T04:36:28;16.92;;;4.35;;
72761;SDS011;60886;55.034;73.150;2023-02-07T04:39:30;15.40;;;5.00;;
72761;SDS011;60886;55.034;73.150;2023-02-07T04:42:32;17.27;;;5.32;;
72761;SDS011;60886;55.034;73.150;2023-02-07T04:45:34;16.47;;;5.20;;
72761;SDS011;60886;55.034;73.150;2023-02-07T04:48:40;17.30;;;4.37;;
72761;SDS011;60886;55.034;73.150;2023-02-07T04:51:41;23.23;;;6.15;;
72761;SDS011;60886;55.034;73.150;2023-02-07T04:54:43;20.40;;;6.47;;
72761;SDS011;60886;55.034;73.150;2023-02-07T04:57:44;19.40;;;5.88;;
72761;SDS011;60886;55.034;73.150;2023-02-07T05:00:45;21.45;;;5.40;;
72761;SDS011;60886;55.034;73.150;2023-02-07T05:03:52;17.20;;;5.67;;
72761;SDS011;60886;55.034;73.150;2023-02-07T05:06:54;17.70;;;5.18;;
72761;SDS011;60886;55.034;73.150;2023-02-07T05:10:06;14.85;;;4.45;;
72761;SDS011;60886;55.034;73.150;2023-02-07T05:13:07;16.15;;;4.93;;
72761;SDS011;60886;55.034;73.150;2023-02-07T05:16:09;14.80;;;4.18;;
72761;SDS011;60886;55.034;73.150;2023-02-07T05:19:10;14.03;;;4.10;;
72761;SDS011;60886;55.034;73.150;2023-02-07T05:22:12;14.05;;;4.55;;
72761;SDS011;60886;55.034;73.150;2023-02-07T05:25:13;17.00;;;5.25;;
72761;SDS011;60886;55.034;73.150;2023-02-07T05:28:20;17.20;;;4.83;;
72761;SDS011;60886;55.034;73.150;2023-02-07T05:31:21;21.05;;;5.25;;
72761;SDS011;60886;55.034;73.150;2023-02-07T05:34:43;17.57;;;5.07;;
72761;SDS011;60886;55.034;73.150;2023-02-07T05:37:44;23.13;;;6.40;;
72761;SDS011;60886;55.034;73.150;2023-02-07T05:40:46;12.83;;;3.90;;
72761;SDS011;60886;55.034;73.150;2023-02-07T05:43:49;17.73;;;4.33;;
72761;SDS011;60886;55.034;73.150;2023-02-07T05:46:51;16.98;;;4.38;;
72761;SDS011;60886;55.034;73.150;2023-02-07T05:49:55;15.90;;;4.47;;
72761;SDS011;60886;55.034;73.150;2023-02-07T05:52:57;12.47;;;4.00;;
72761;SDS011;60886;55.034;73.150;2023-02-07T05:56:09;14.80;;;4.75;;
72761;SDS011;60886;55.034;73.150;2023-02-07T05:59:15;16.23;;;4.68;;
72761;SDS011;60886;55.034;73.150;2023-02-07T06:02:16;18.27;;;5.25;;
72761;SDS011;60886;55.034;73.150;2023-02-07T06:05:18;16.17;;;5.78;;
72761;SDS011;60886;55.034;73.150;2023-02-07T06:08:33;19.08;;;6.18;;
72761;SDS011;60886;55.034;73.150;2023-02-07T06:11:34;22.23;;;7.25;;
72761;SDS011;60886;55.034;73.150;2023-02-07T06:14:35;21.77;;;5.97;;
72761;SDS011;60886;55.034;73.150;2023-02-07T06:17:36;17.20;;;5.30;;
72761;SDS011;60886;55.034;73.150;2023-02-07T06:20:43;18.48;;;5.28;;
72761;SDS011;60886;55.034;73.150;2023-02-07T06:23:44;16.48;;;4.68;;
72761;SDS011;60886;55.034;73.150;2023-02-07T06:26:49;16.60;;;3.90;;
72761;SDS011;60886;55.034;73.150;2023-02-07T06:29:50;14.30;;;3.80;;
72761;SDS011;60886;55.034;73.150;2023-02-07T06:32:51;11.48;;;3.75;;
72761;SDS011;60886;55.034;73.150;2023-02-07T06:35:53;15.97;;;4.03;;
72761;SDS011;60886;55.034;73.150;2023-02-07T06:38:55;10.32;;;2.97;;
72761;SDS011;60886;55.034;73.150;2023-02-07T06:41:59;14.15;;;3.72;;
72761;SDS011;60886;55.034;73.150;2023-02-07T06:45:06;13.70;;;4.23;;
72761;SDS011;60886;55.034;73.150;2023-02-07T06:48:08;10.03;;;3.33;;
72761;SDS011;60886;55.034;73.150;2023-02-07T06:51:09;11.20;;;3.35;;
72761;SDS011;60886;55.034;73.150;2023-02-07T06:54:10;13.50;;;3.38;;
72761;SDS011;60886;55.034;73.150;2023-02-07T06:57:12;11.17;;;2.70;;
72761;SDS011;60886;55.034;73.150;2023-02-07T07:00:23;13.93;;;4.22;;
72761;SDS011;60886;55.034;73.150;2023-02-07T07:03:32;12.99;;;3.60;;
72761;SDS011;60886;55.034;73.150;2023-02-07T07:06:45;15.82;;;3.83;;
72761;SDS011;60886;55.034;73.150;2023-02-07T07:09:56;12.83;;;3.47;;
72761;SDS011;60886;55.034;73.150;2023-02-07T07:13:07;15.93;;;4.00;;
72761;SDS011;60886;55.034;73.150;2023-02-07T07:16:09;13.93;;;4.32;;
72761;SDS011;60886;55.034;73.150;2023-02-07T07:19:20;13.63;;;3.60;;
72761;SDS011;60886;55.034;73.150;2023-02-07T07:22:21;12.55;;;3.22;;
72761;SDS011;60886;55.034;73.150;2023-02-07T07:25:27;11.77;;;3.70;;
72761;SDS011;60886;55.034;73.150;2023-02-07T07:28:32;14.75;;;3.80;;
72761;SDS011;60886;55.034;73.150;2023-02-07T07:31:34;11.63;;;3.67;;
72761;SDS011;60886;55.034;73.150;2023-02-07T07:34:35;11.95;;;4.10;;
72761;SDS011;60886;55.034;73.150;2023-02-07T07:37:37;15.90;;;3.90;;
72761;SDS011;60886;55.034;73.150;2023-02-07T07:40:42;17.25;;;4.07;;
72761;SDS011;60886;55.034;73.150;2023-02-07T07:43:44;16.90;;;4.33;;
72761;SDS011;60886;55.034;73.150;2023-02-07T07:46:47;13.38;;;3.38;;
72761;SDS011;60886;55.034;73.150;2023-02-07T07:49:51;11.37;;;3.40;;
72761;SDS011;60886;55.034;73.150;2023-02-07T07:52:52;14.18;;;3.95;;
72761;SDS011;60886;55.034;73.150;2023-02-07T07:55:59;13.85;;;3.67;;
72761;SDS011;60886;55.034;73.150;2023-02-07T07:59:05;11.20;;;3.00;;
72761;SDS011;60886;55.034;73.150;2023-02-07T08:02:10;11.85;;;3.10;;
72761;SDS011;60886;55.034;73.150;2023-02-07T08:05:12;12.60;;;2.90;;
72761;SDS011;60886;55.034;73.150;2023-02-07T08:08:14;15.85;;;3.88;;
72761;SDS011;60886;55.034;73.150;2023-02-07T08:11:21;18.50;;;4.57;;
72761;SDS011;60886;55.034;73.150;2023-02-07T08:14:23;17.40;;;4.50;;
72761;SDS011;60886;55.034;73.150;2023-02-07T08:17:25;16.17;;;3.83;;
72761;SDS011;60886;55.034;73.150;2023-02-07T08:20:26;15.77;;;4.32;;
72761;SDS011;60886;55.034;73.150;2023-02-07T08:23:34;14.50;;;4.38;;
72761;SDS011;60886;55.034;73.150;2023-02-07T08:26:36;13.13;;;3.55;;
72761;SDS011;60886;55.034;73.150;2023-02-07T08:29:40;12.20;;;3.40;;
72761;SDS011;60886;55.034;73.150;2023-02-07T08:32:52;16.45;;;4.15;;
72761;SDS011;60886;55.034;73.150;2023-02-07T08:35:55;10.90;;;3.33;;
72761;SDS011;60886;55.034;73.150;2023-02-07T08:38:56;13.45;;;3.80;;
72761;SDS011;60886;55.034;73.150;2023-02-07T08:41:58;12.55;;;4.28;;
72761;SDS011;60886;55.034;73.150;2023-02-07T08:45:00;13.93;;;4.17;;
72761;SDS011;60886;55.034;73.150;2023-02-07T08:48:02;16.25;;;5.05;;
72761;SDS011;60886;55.034;73.150;2023-02-07T08:51:07;12.27;;;4.30;;
72761;SDS011;60886;55.034;73.150;2023-02-07T08:54:09;17.73;;;4.50;;
72761;SDS011;60886;55.034;73.150;2023-02-07T08:57:12;12.35;;;4.18;;
72761;SDS011;60886;55.034;73.150;2023-02-07T09:00:26;12.37;;;4.03;;
72761;SDS011;60886;55.034;73.150;2023-02-07T09:03:32;11.96;;;4.24;;
72761;SDS011;60886;55.034;73.150;2023-02-07T09:06:34;11.80;;;3.90;;
72761;SDS011;60886;55.034;73.150;2023-02-07T09:09:35;18.73;;;5.37;;
72761;SDS011;60886;55.034;73.150;2023-02-07T09:12:39;14.30;;;4.32;;
72761;SDS011;60886;55.034;73.150;2023-02-07T09:15:41;14.23;;;4.33;;
72761;SDS011;60886;55.034;73.150;2023-02-07T09:18:47;15.93;;;4.43;;
72761;SDS011;60886;55.034;73.150;2023-02-07T09:21:49;15.35;;;4.30;;
72761;SDS011;60886;55.034;73.150;2023-02-07T09:24:51;15.83;;;4.30;;
72761;SDS011;60886;55.034;73.150;2023-02-07T09:27:57;13.52;;;4.28;;
72761;SDS011;60886;55.034;73.150;2023-02-07T09:31:05;18.23;;;4.13;;
72761;SDS011;60886;55.034;73.150;2023-02-07T09:34:14;16.48;;;4.68;;
72761;SDS011;60886;55.034;73.150;2023-02-07T09:37:16;17.37;;;4.20;;
72761;SDS011;60886;55.034;73.150;2023-02-07T09:40:28;17.88;;;4.65;;
72761;SDS011;60886;55.034;73.150;2023-02-07T09:43:38;14.52;;;4.07;;
72761;SDS011;60886;55.034;73.150;2023-02-07T09:47:16;14.75;;;3.78;;
72761;SDS011;60886;55.034;73.150;2023-02-07T09:50:21;18.63;;;4.25;;
72761;SDS011;60886;55.034;73.150;2023-02-07T09:54:06;13.96;;;3.96;;
72761;SDS011;60886;55.034;73.150;2023-02-07T09:57:24;18.52;;;4.68;;
72761;SDS011;60886;55.034;73.150;2023-02-07T10:00:41;13.77;;;4.77;;
72761;SDS011;60886;55.034;73.150;2023-02-07T10:07:23;16.85;;;3.83;;
72761;SDS011;60886;55.034;73.150;2023-02-07T10:10:30;16.63;;;4.27;;
72761;SDS011;60886;55.034;73.150;2023-02-07T10:17:13;10.50;;;3.47;;
72761;SDS011;60886;55.034;73.150;2023-02-07T10:27:08;19.10;;;4.28;;
72761;SDS011;60886;55.034;73.150;2023-02-07T10:30:14;12.83;;;3.63;;
72761;SDS011;60886;55.034;73.150;2023-02-07T10:33:33;15.60;;;4.50;;
72761;SDS011;60886;55.034;73.150;2023-02-07T10:36:40;13.13;;;3.90;;
72761;SDS011;60886;55.034;73.150;2023-02-07T10:39:50;15.20;;;4.23;;
72761;SDS011;60886;55.034;73.150;2023-02-07T10:43:18;14.13;;;4.00;;
72761;SDS011;60886;55.034;73.150;2023-02-07T10:46:32;18.45;;;4.20;;
72761;SDS011;60886;55.034;73.150;2023-02-07T10:49:36;15.52;;;3.63;;
72761;SDS011;60886;55.034;73.150;2023-02-07T10:52:38;12.23;;;3.53;;
72761;SDS011;60886;55.034;73.150;2023-02-07T10:55:49;13.82;;;3.75;;
72761;SDS011;60886;55.034;73.150;2023-02-07T10:58:51;21.40;;;4.03;;
72761;SDS011;60886;55.034;73.150;2023-02-07T11:02:25;16.83;;;3.80;;
72761;SDS011;60886;55.034;73.150;2023-02-07T11:05:40;14.20;;;3.55;;
72761;SDS011;60886;55.034;73.150;2023-02-07T11:09:11;14.35;;;3.70;;
72761;SDS011;60886;55.034;73.150;2023-02-07T11:12:23;11.67;;;3.10;;
72761;SDS011;60886;55.034;73.150;2023-02-07T11:15:31;13.63;;;3.45;;
72761;SDS011;60886;55.034;73.150;2023-02-07T11:18:38;17.34;;;3.15;;
72761;SDS011;60886;55.034;73.150;2023-02-07T11:21:42;16.65;;;3.70;;
72761;SDS011;60886;55.034;73.150;2023-02-07T11:24:51;15.67;;;3.83;;
72761;SDS011;60886;55.034;73.150;2023-02-07T11:28:05;16.13;;;3.47;;
72761;SDS011;60886;55.034;73.150;2023-02-07T11:31:17;11.40;;;3.55;;
72761;SDS011;60886;55.034;73.150;2023-02-07T11:37:47;17.90;;;4.78;;
72761;SDS011;60886;55.034;73.150;2023-02-07T11:41:02;15.80;;;4.90;;
72761;SDS011;60886;55.034;73.150;2023-02-07T11:44:15;18.45;;;4.20;;
72761;SDS011;60886;55.034;73.150;2023-02-07T11:47:28;13.50;;;4.47;;
72761;SDS011;60886;55.034;73.150;2023-02-07T11:50:34;14.25;;;3.90;;
72761;SDS011;60886;55.034;73.150;2023-02-07T11:53:40;14.40;;;4.10;;
72761;SDS011;60886;55.034;73.150;2023-02-07T11:56:53;14.02;;;3.70;;
72761;SDS011;60886;55.034;73.150;2023-02-07T12:03:39;8.45;;;3.20;;
72761;SDS011;60886;55.034;73.150;2023-02-07T12:06:46;13.07;;;3.53;;
72761;SDS011;60886;55.034;73.150;2023-02-07T12:10:04;14.17;;;4.27;;
72761;SDS011;60886;55.034;73.150;2023-02-07T12:16:29;16.00;;;4.13;;
72761;SDS011;60886;55.034;73.150;2023-02-07T12:19:45;14.37;;;4.10;;
72761;SDS011;60886;55.034;73.150;2023-02-07T12:26:32;16.13;;;3.95;;
72761;SDS011;60886;55.034;73.150;2023-02-07T12:30:01;11.82;;;3.53;;
72761;SDS011;60886;55.034;73.150;2023-02-07T12:33:11;15.73;;;4.25;;
72761;SDS011;60886;55.034;73.150;2023-02-07T12:36:37;13.80;;;4.00;;
72761;SDS011;60886;55.034;73.150;2023-02-07T12:39:43;15.47;;;4.10;;
72761;SDS011;60886;55.034;73.150;2023-02-07T12:46:35;18.00;;;4.73;;
72761;SDS011;60886;55.034;73.150;2023-02-07T12:56:52;18.00;;;5.40;;
72761;SDS011;60886;55.034;73.150;2023-02-07T13:07:17;12.68;;;4.15;;
72761;SDS011;60886;55.034;73.150;2023-02-07T13:10:21;21.37;;;6.77;;
72761;SDS011;60886;55.034;73.150;2023-02-07T13:13:47;19.33;;;6.18;;
72761;SDS011;60886;55.034;73.150;2023-02-07T13:20:52;11.67;;;4.83;;
72761;SDS011;60886;55.034;73.150;2023-02-07T13:24:03;23.03;;;7.00;;
72761;SDS011;60886;55.034;73.150;2023-02-07T13:27:13;19.83;;;6.32;;
72761;SDS011;60886;55.034;73.150;2023-02-07T13:30:23;22.00;;;7.05;;
72761;SDS011;60886;55.034;73.150;2023-02-07T13:33:36;19.70;;;6.88;;
72761;SDS011;60886;55.034;73.150;2023-02-07T13:36:49;30.48;;;9.52;;
72761;SDS011;60886;55.034;73.150;2023-02-07T13:39:57;22.67;;;7.77;;
72761;SDS011;60886;55.034;73.150;2023-02-07T13:52:36;32.77;;;10.40;;
72761;SDS011;60886;55.034;73.150;2023-02-07T13:55:50;33.37;;;10.37;;
72761;SDS011;60886;55.034;73.150;2023-02-07T13:59:02;23.13;;;7.47;;
72761;SDS011;60886;55.034;73.150;2023-02-07T14:02:22;20.27;;;6.45;;
72761;SDS011;60886;55.034;73.150;2023-02-07T14:05:34;24.13;;;7.00;;
72761;SDS011;60886;55.034;73.150;2023-02-07T14:08:43;22.20;;;7.32;;
72761;SDS011;60886;55.034;73.150;2023-02-07T14:11:46;22.45;;;7.22;;
72761;SDS011;60886;55.034;73.150;2023-02-07T14:14:50;19.50;;;6.97;;
72761;SDS011;60886;55.034;73.150;2023-02-07T14:18:02;17.42;;;5.68;;
72761;SDS011;60886;55.034;73.150;2023-02-07T14:24:28;20.27;;;6.07;;
72761;SDS011;60886;55.034;73.150;2023-02-07T14:27:39;28.55;;;9.23;;
72761;SDS011;60886;55.034;73.150;2023-02-07T14:34:11;29.60;;;9.83;;
72761;SDS011;60886;55.034;73.150;2023-02-07T14:37:35;20.08;;;6.38;;
72761;SDS011;60886;55.034;73.150;2023-02-07T14:43:58;16.63;;;7.37;;
72761;SDS011;60886;55.034;73.150;2023-02-07T14:47:03;19.02;;;6.25;;
72761;SDS011;60886;55.034;73.150;2023-02-07T14:50:06;21.77;;;6.70;;
72761;SDS011;60886;55.034;73.150;2023-02-07T14:53:11;18.52;;;5.95;;
72761;SDS011;60886;55.034;73.150;2023-02-07T15:03:19;18.95;;;6.30;;
72761;SDS011;60886;55.034;73.150;2023-02-07T15:06:35;16.20;;;5.10;;
72761;SDS011;60886;55.034;73.150;2023-02-07T15:09:39;14.63;;;4.90;;
72761;SDS011;60886;55.034;73.150;2023-02-07T15:12:46;15.35;;;5.13;;
72761;SDS011;60886;55.034;73.150;2023-02-07T15:19:13;18.00;;;5.13;;
72761;SDS011;60886;55.034;73.150;2023-02-07T15:22:25;15.87;;;4.50;;
72761;SDS011;60886;55.034;73.150;2023-02-07T15:25:28;15.97;;;4.50;;
72761;SDS011;60886;55.034;73.150;2023-02-07T15:28:35;14.07;;;4.70;;
72761;SDS011;60886;55.034;73.150;2023-02-07T15:31:40;16.70;;;5.05;;
72761;SDS011;60886;55.034;73.150;2023-02-07T15:34:53;12.65;;;4.63;;
72761;SDS011;60886;55.034;73.150;2023-02-07T15:38:34;19.52;;;6.05;;
72761;SDS011;60886;55.034;73.150;2023-02-07T15:41:30;13.27;;;4.27;;
72761;SDS011;60886;55.034;73.150;2023-02-07T15:44:49;21.25;;;7.00;;
72761;SDS011;60886;55.034;73.150;2023-02-07T15:47:58;19.97;;;5.30;;
72761;SDS011;60886;55.034;73.150;2023-02-07T15:51:02;37.75;;;9.68;;
72761;SDS011;60886;55.034;73.150;2023-02-07T15:54:05;33.35;;;9.52;;
72761;SDS011;60886;55.034;73.150;2023-02-07T15:57:10;25.63;;;7.70;;
72761;SDS011;60886;55.034;73.150;2023-02-07T16:03:20;39.83;;;10.50;;
72761;SDS011;60886;55.034;73.150;2023-02-07T16:06:30;29.67;;;7.30;;
72761;SDS011;60886;55.034;73.150;2023-02-07T16:09:33;27.13;;;6.50;;
72761;SDS011;60886;55.034;73.150;2023-02-07T16:12:46;21.80;;;6.30;;
72761;SDS011;60886;55.034;73.150;2023-02-07T16:15:59;21.85;;;6.15;;
72761;SDS011;60886;55.034;73.150;2023-02-07T16:19:27;30.77;;;6.13;;
72761;SDS011;60886;55.034;73.150;2023-02-07T16:22:29;20.73;;;5.32;;
72761;SDS011;60886;55.034;73.150;2023-02-07T16:25:34;17.97;;;4.87;;
72761;SDS011;60886;55.034;73.150;2023-02-07T16:28:41;18.52;;;5.55;;
72761;SDS011;60886;55.034;73.150;2023-02-07T16:31:43;13.07;;;5.55;;
72761;SDS011;60886;55.034;73.150;2023-02-07T16:34:46;19.10;;;5.17;;
72761;SDS011;60886;55.034;73.150;2023-02-07T16:37:58;17.30;;;5.43;;
72761;SDS011;60886;55.034;73.150;2023-02-07T16:41:00;15.37;;;4.37;;
72761;SDS011;60886;55.034;73.150;2023-02-07T16:44:06;15.82;;;4.32;;
72761;SDS011;60886;55.034;73.150;2023-02-07T16:47:21;16.48;;;4.32;;
72761;SDS011;60886;55.034;73.150;2023-02-07T16:50:24;11.57;;;3.67;;
72761;SDS011;60886;55.034;73.150;2023-02-07T16:53:32;12.80;;;4.47;;
72761;SDS011;60886;55.034;73.150;2023-02-07T16:56:35;16.55;;;4.07;;
72761;SDS011;60886;55.034;73.150;2023-02-07T16:59:39;12.00;;;4.03;;
72761;SDS011;60886;55.034;73.150;2023-02-07T17:02:42;16.73;;;4.22;;
72761;SDS011;60886;55.034;73.150;2023-02-07T17:05:49;12.70;;;3.97;;
72761;SDS011;60886;55.034;73.150;2023-02-07T17:08:56;12.50;;;4.05;;
72761;SDS011;60886;55.034;73.150;2023-02-07T17:11:57;13.50;;;4.05;;
72761;SDS011;60886;55.034;73.150;2023-02-07T17:14:59;15.13;;;4.40;;
72761;SDS011;60886;55.034;73.150;2023-02-07T17:18:01;15.57;;;4.75;;
72761;SDS011;60886;55.034;73.150;2023-02-07T17:21:09;15.40;;;4.37;;
72761;SDS011;60886;55.034;73.150;2023-02-07T17:24:15;13.40;;;4.20;;
72761;SDS011;60886;55.034;73.150;2023-02-07T17:27:17;15.87;;;3.70;;
72761;SDS011;60886;55.034;73.150;2023-02-07T17:30:33;10.63;;;3.00;;
72761;SDS011;60886;55.034;73.150;2023-02-07T17:33:37;16.35;;;4.20;;
72761;SDS011;60886;55.034;73.150;2023-02-07T17:36:49;35.30;;;13.27;;
72761;SDS011;60886;55.034;73.150;2023-02-07T17:39:56;13.85;;;4.60;;
72761;SDS011;60886;55.034;73.150;2023-02-07T17:43:03;15.53;;;4.53;;
72761;SDS011;60886;55.034;73.150;2023-02-07T17:46:08;14.90;;;4.38;;
72761;SDS011;60886;55.034;73.150;2023-02-07T17:49:25;17.03;;;4.57;;
72761;SDS011;60886;55.034;73.150;2023-02-07T17:52:32;14.63;;;4.05;;
72761;SDS011;60886;55.034;73.150;2023-02-07T17:55:36;13.60;;;3.73;;
72761;SDS011;60886;55.034;73.150;2023-02-07T17:58:38;21.40;;;4.63;;
72761;SDS011;60886;55.034;73.150;2023-02-07T18:01:49;17.38;;;4.90;;
72761;SDS011;60886;55.034;73.150;2023-02-07T18:04:50;15.37;;;4.87;;
72761;SDS011;60886;55.034;73.150;2023-02-07T18:07:52;12.07;;;3.92;;
72761;SDS011;60886;55.034;73.150;2023-02-07T18:11:03;17.00;;;4.23;;
72761;SDS011;60886;55.034;73.150;2023-02-07T18:14:06;13.93;;;4.45;;
72761;SDS011;60886;55.034;73.150;2023-02-07T18:17:08;13.95;;;3.80;;
72761;SDS011;60886;55.034;73.150;2023-02-07T18:20:11;17.65;;;4.75;;
72761;SDS011;60886;55.034;73.150;2023-02-07T18:23:32;13.79;;;4.44;;
72761;SDS011;60886;55.034;73.150;2023-02-07T18:26:36;18.05;;;5.88;;
72761;SDS011;60886;55.034;73.150;2023-02-07T18:29:38;17.77;;;4.90;;
72761;SDS011;60886;55.034;73.150;2023-02-07T18:32:39;12.95;;;4.30;;
72761;SDS011;60886;55.034;73.150;2023-02-07T18:35:43;12.33;;;4.33;;
72761;SDS011;60886;55.034;73.150;2023-02-07T18:38:56;15.55;;;5.38;;
72761;SDS011;60886;55.034;73.150;2023-02-07T18:41:57;17.92;;;5.38;;
72761;SDS011;60886;55.034;73.150;2023-02-07T18:44:58;17.10;;;5.55;;
72761;SDS011;60886;55.034;73.150;2023-02-07T18:48:10;17.45;;;5.03;;
72761;SDS011;60886;55.034;73.150;2023-02-07T18:51:22;13.93;;;5.03;;
72761;SDS011;60886;55.034;73.150;2023-02-07T18:54:26;16.97;;;5.37;;
72761;SDS011;60886;55.034;73.150;2023-02-07T18:57:33;17.23;;;5.03;;
72761;SDS011;60886;55.034;73.150;2023-02-07T19:00:45;18.50;;;6.33;;
72761;SDS011;60886;55.034;73.150;2023-02-07T19:03:47;14.60;;;4.07;;
72761;SDS011;60886;55.034;73.150;2023-02-07T19:07:04;15.38;;;4.50;;
72761;SDS011;60886;55.034;73.150;2023-02-07T19:10:06;14.67;;;4.37;;
72761;SDS011;60886;55.034;73.150;2023-02-07T19:13:11;14.13;;;3.92;;
72761;SDS011;60886;55.034;73.150;2023-02-07T19:16:15;16.07;;;4.17;;
72761;SDS011;60886;55.034;73.150;2023-02-07T19:19:18;14.27;;;4.33;;
72761;SDS011;60886;55.034;73.150;2023-02-07T19:22:24;15.50;;;4.32;;
72761;SDS011;60886;55.034;73.150;2023-02-07T19:25:44;19.03;;;6.50;;
72761;SDS011;60886;55.034;73.150;2023-02-07T19:28:49;14.63;;;5.30;;
72761;SDS011;60886;55.034;73.150;2023-02-07T19:31:56;13.83;;;4.63;;
72761;SDS011;60886;55.034;73.150;2023-02-07T19:35:02;13.70;;;4.00;;
72761;SDS011;60886;55.034;73.150;2023-02-07T19:38:08;16.38;;;5.30;;
72761;SDS011;60886;55.034;73.150;2023-02-07T19:41:09;20.63;;;5.23;;
72761;SDS011;60886;55.034;73.150;2023-02-07T19:44:25;21.60;;;6.10;;
72761;SDS011;60886;55.034;73.150;2023-02-07T19:47:28;18.33;;;5.10;;
72761;SDS011;60886;55.034;73.150;2023-02-07T19:50:30;12.83;;;3.83;;
72761;SDS011;60886;55.034;73.150;2023-02-07T19:53:48;15.13;;;4.90;;
72761;SDS011;60886;55.034;73.150;2023-02-07T19:57:01;13.77;;;4.90;;
72761;SDS011;60886;55.034;73.150;2023-02-07T20:00:08;15.07;;;4.78;;
72761;SDS011;60886;55.034;73.150;2023-02-07T20:03:12;13.67;;;4.50;;
72761;SDS011;60886;55.034;73.150;2023-02-07T20:06:16;14.52;;;4.45;;
72761;SDS011;60886;55.034;73.150;2023-02-07T20:09:20;13.03;;;3.97;;
72761;SDS011;60886;55.034;73.150;2023-02-07T20:12:22;15.03;;;4.63;;